createdAt,value
2022-08-22T00:00:19.433Z,59.75
2022-08-22T00:02:42.143Z,41.08
2022-08-22T00:02:47.240Z,52.51
2022-08-22T00:03:01.118Z,42.28
2022-08-22T00:03:10.645Z,53.97
2022-08-22T00:03:17.634Z,60.65
2022-08-22T00:06:01.934Z,60.26
2022-08-22T00:08:38.992Z,60.58
2022-08-22T00:11:15.944Z,60.58
2022-08-22T00:13:54.843Z,60.98
2022-08-22T00:16:34.794Z,60.56
2022-08-22T00:19:13.232Z,61.10
2022-08-22T00:21:52.417Z,61.16
2022-08-22T00:24:26.805Z,60.67
2022-08-22T00:27:00.234Z,60.93
2022-08-22T00:29:34.707Z,61.66
2022-08-22T00:32:11.761Z,62.17
2022-08-22T00:34:47.608Z,61.95
2022-08-22T00:37:24.255Z,62.44
2022-08-22T00:39:59.819Z,63.26
2022-08-22T00:42:57.530Z,64.42
2022-08-22T00:45:58.178Z,63.80
2022-08-22T00:48:44.292Z,63.32
2022-08-22T00:51:45.595Z,63.24
2022-08-22T00:54:29.968Z,63.78
2022-08-22T00:57:19.386Z,64.12
2022-08-22T01:00:05.554Z,64.24
2022-08-22T01:02:57.684Z,64.53
2022-08-22T01:05:45.907Z,65.61
2022-08-22T01:08:31.608Z,65.97
2022-08-22T01:11:18.716Z,65.90
2022-08-22T01:14:03.948Z,65.78
2022-08-22T01:16:54.723Z,65.92
2022-08-22T01:20:00.404Z,65.85
2022-08-22T01:23:03.188Z,65.62
2022-08-22T01:26:02.943Z,66.07
2022-08-22T01:29:03.840Z,66.14
2022-08-22T01:32:04.435Z,66.80
2022-08-22T01:35:10.912Z,67.02
2022-08-22T01:38:12.776Z,67.41
2022-08-22T01:41:27.875Z,67.89
2022-08-22T01:44:13.616Z,66.84
2022-08-22T01:46:59.594Z,66.56
2022-08-22T01:49:35.765Z,66.71
2022-08-22T01:52:10.726Z,67.37
2022-08-22T01:54:49.974Z,67.63
2022-08-22T01:57:19.300Z,68.33
2022-08-22T01:59:49.992Z,68.59
2022-08-22T02:02:34.852Z,68.44
2022-08-22T02:05:11.059Z,68.18
2022-08-22T02:07:49.160Z,68.11
2022-08-22T02:10:23.771Z,68.19
2022-08-22T02:13:04.916Z,68.40
2022-08-22T02:15:45.089Z,68.98
2022-08-22T02:18:21.553Z,69.15
2022-08-22T02:21:03.786Z,70.46
2022-08-22T02:23:45.624Z,72.22
2022-08-22T02:26:18.203Z,72.76
2022-08-22T02:28:57.875Z,71.98
2022-08-22T02:31:38.603Z,72.45
2022-08-22T02:34:25.918Z,73.89
2022-08-22T02:37:03.684Z,75.78
2022-08-22T02:39:39.242Z,76.82
2022-08-22T02:42:21.379Z,77.63
2022-08-22T02:44:59.047Z,77.81
2022-08-22T02:47:34.186Z,77.83
2022-08-22T02:50:13.150Z,77.09
2022-08-22T02:52:53.908Z,77.08
2022-08-22T02:55:36.739Z,76.74
2022-08-22T02:58:10.615Z,76.64
2022-08-22T03:00:49.205Z,76.83
2022-08-22T03:03:22.201Z,76.13
2022-08-22T03:06:01.103Z,75.49
2022-08-22T03:08:32.810Z,75.54
2022-08-22T03:11:14.608Z,75.22
2022-08-22T03:13:54.940Z,75.35
2022-08-22T03:16:33.854Z,76.36
2022-08-22T03:19:07.567Z,76.81
2022-08-22T03:21:46.773Z,76.61
2022-08-22T03:24:22.187Z,76.79
2022-08-22T03:26:57.664Z,76.82
2022-08-22T03:29:28.132Z,76.66
2022-08-22T03:32:12.453Z,76.73
2022-08-22T03:34:56.508Z,76.96
2022-08-22T03:37:33.694Z,77.85
2022-08-22T03:40:08.158Z,78.70
2022-08-22T03:43:14.644Z,79.81
2022-08-22T03:46:24.727Z,80.03
2022-08-22T03:49:16.015Z,80.79
2022-08-22T03:52:11.020Z,80.74
2022-08-22T03:55:14.594Z,80.74
2022-08-22T03:58:05.019Z,81.01
2022-08-22T04:01:00.205Z,82.14
2022-08-22T04:04:18.836Z,82.57
2022-08-22T04:07:17.771Z,83.30
2022-08-22T04:10:38.887Z,83.44
2022-08-22T04:13:28.766Z,83.74
2022-08-22T04:16:20.748Z,83.29
2022-08-22T04:19:05.709Z,83.27
2022-08-22T04:22:15.656Z,83.47
2022-08-22T04:24:57.432Z,84.21
2022-08-22T04:27:30.251Z,83.73
2022-08-22T04:30:03.807Z,83.02
2022-08-22T04:32:39.356Z,82.70
2022-08-22T04:35:11.993Z,82.75
2022-08-22T04:37:46.265Z,82.44
2022-08-22T04:40:23.294Z,82.51
2022-08-22T04:42:55.510Z,82.97
2022-08-22T04:45:29.637Z,83.58
2022-08-22T04:48:05.198Z,83.35
2022-08-22T04:50:38.021Z,82.61
2022-08-22T04:53:23.273Z,82.17
2022-08-22T04:56:03.010Z,81.87
2022-08-22T04:58:44.915Z,81.14
2022-08-22T05:01:18.086Z,80.58
2022-08-22T05:03:53.833Z,80.86
2022-08-22T05:06:26.401Z,80.80
2022-08-22T05:08:56.976Z,80.46
2022-08-22T05:11:25.525Z,80.49
2022-08-22T05:13:57.733Z,80.69
2022-08-22T05:16:29.817Z,80.54
2022-08-22T05:19:03.865Z,80.57
2022-08-22T05:21:35.201Z,80.25
2022-08-22T05:24:09.492Z,79.60
2022-08-22T05:26:41.550Z,78.91
2022-08-22T05:29:12.048Z,78.33
2022-08-22T05:31:42.901Z,76.99
2022-08-22T05:34:16.261Z,75.12
2022-08-22T05:36:49.384Z,74.10
2022-08-22T05:39:20.704Z,72.91
2022-08-22T05:41:50.693Z,71.56
2022-08-22T05:44:22.421Z,70.77
2022-08-22T05:46:57.281Z,69.73
2022-08-22T05:49:34.679Z,68.75
2022-08-22T05:52:10.693Z,68.79
2022-08-22T05:54:51.195Z,67.92
2022-08-22T05:57:28.803Z,66.71
2022-08-22T06:00:04.017Z,65.48
2022-08-22T06:02:50.967Z,65.76
2022-08-22T06:05:27.263Z,65.48
2022-08-22T06:08:02.086Z,67.35
2022-08-22T06:10:40.013Z,65.91
2022-08-22T06:13:12.798Z,64.40
2022-08-22T06:15:46.324Z,64.45
2022-08-22T06:18:18.031Z,62.35
2022-08-22T06:20:50.487Z,62.99
2022-08-22T06:23:26.199Z,62.40
2022-08-22T06:25:56.747Z,59.68
2022-08-22T06:28:27.015Z,59.05
2022-08-22T06:30:58.081Z,58.65
2022-08-22T06:33:29.289Z,57.02
2022-08-22T06:36:20.580Z,57.26
2022-08-22T06:39:05.479Z,54.31
2022-08-22T06:41:37.024Z,53.05
2022-08-22T06:44:08.135Z,54.08
2022-08-22T06:46:39.400Z,54.52
2022-08-22T06:49:09.849Z,53.31
2022-08-22T06:51:40.354Z,51.21
2022-08-22T06:54:16.177Z,52.80
2022-08-22T06:56:47.559Z,52.22
2022-08-22T06:59:18.132Z,49.55
2022-08-22T07:01:52.039Z,48.62
2022-08-22T07:04:26.417Z,49.72
2022-08-22T07:06:58.121Z,47.38
2022-08-22T07:09:29.133Z,47.88
2022-08-22T07:12:01.889Z,47.20
2022-08-22T07:14:34.477Z,46.67
2022-08-22T07:17:05.492Z,45.47
2022-08-22T07:19:36.900Z,44.37
2022-08-22T07:22:15.568Z,44.01
2022-08-22T07:24:49.219Z,44.15
2022-08-22T07:27:33.089Z,43.08
2022-08-22T07:30:06.696Z,43.05
2022-08-22T07:32:48.120Z,41.17
2022-08-22T07:35:19.124Z,41.06
2022-08-22T07:38:00.269Z,39.99
2022-08-22T07:40:35.450Z,39.52
2022-08-22T07:43:13.377Z,37.85
2022-08-22T07:45:48.497Z,37.77
2022-08-22T07:48:25.878Z,36.74
2022-08-22T07:51:01.533Z,36.44
2022-08-22T07:53:39.905Z,34.98
2022-08-22T07:56:10.761Z,34.87
2022-08-22T07:58:41.905Z,34.47
2022-08-22T08:01:12.485Z,34.81
2022-08-22T08:03:40.589Z,34.65
2022-08-22T08:06:10.456Z,34.29
2022-08-22T08:08:44.040Z,33.92
2022-08-22T08:11:15.967Z,32.15
2022-08-22T08:13:48.796Z,31.77
2022-08-22T08:16:19.948Z,30.85
2022-08-22T08:18:50.968Z,31.99
2022-08-22T08:21:38.476Z,32.56
2022-08-22T08:24:13.334Z,30.76
2022-08-22T08:27:05.333Z,31.38
2022-08-22T08:29:32.847Z,31.00
2022-08-22T08:32:02.270Z,29.46
2022-08-22T08:34:34.460Z,29.99
2022-08-22T08:37:12.776Z,28.59
2022-08-22T08:39:48.390Z,28.33
2022-08-22T08:43:14.203Z,27.99
2022-08-22T08:46:00.120Z,28.71
2022-08-22T08:49:06.414Z,29.60
2022-08-22T08:51:56.262Z,28.69
2022-08-22T08:54:49.994Z,29.08
2022-08-22T08:57:29.964Z,28.87
2022-08-22T09:00:07.439Z,28.35
2022-08-22T09:02:55.244Z,28.83
2022-08-22T09:05:52.711Z,28.56
2022-08-22T09:08:59.333Z,28.09
2022-08-22T09:12:11.365Z,28.50
2022-08-22T09:15:05.256Z,25.44
2022-08-22T09:18:13.368Z,24.57
2022-08-22T09:21:31.271Z,24.67
2022-08-22T09:24:59.193Z,25.48
2022-08-22T09:27:34.844Z,25.00
2022-08-22T09:30:11.656Z,25.61
2022-08-22T09:32:48.485Z,25.39
2022-08-22T09:35:27.742Z,25.28
2022-08-22T09:38:26.800Z,26.27
2022-08-22T09:41:05.245Z,26.01
2022-08-22T09:43:45.059Z,25.41
2022-08-22T09:46:29.450Z,25.74
2022-08-22T09:49:10.377Z,24.61
2022-08-22T09:51:40.389Z,24.23
2022-08-22T09:54:31.418Z,25.74
2022-08-22T09:57:17.353Z,26.10
2022-08-22T10:00:03.366Z,25.71
2022-08-22T10:02:43.698Z,24.96
2022-08-22T10:05:35.238Z,24.45
2022-08-22T10:08:19.794Z,24.26
2022-08-22T10:11:11.268Z,25.50
2022-08-22T10:13:57.751Z,26.80
2022-08-22T10:16:50.153Z,27.19
2022-08-22T10:19:27.395Z,27.21
2022-08-22T10:22:20.504Z,28.39
2022-08-22T10:25:00.437Z,28.60
2022-08-22T10:27:44.986Z,28.09
2022-08-22T10:30:18.053Z,27.33
2022-08-22T10:32:54.142Z,27.19
2022-08-22T10:35:34.030Z,25.78
2022-08-22T10:38:10.713Z,24.52
2022-08-22T10:40:44.196Z,24.89
2022-08-22T10:43:29.194Z,24.98
2022-08-22T10:46:06.827Z,23.62
2022-08-22T10:48:59.514Z,23.88
2022-08-22T10:51:45.604Z,24.75
2022-08-22T10:54:38.451Z,24.67
2022-08-22T10:57:20.936Z,24.38
2022-08-22T10:59:58.483Z,25.40
2022-08-22T11:02:44.904Z,25.37
2022-08-22T11:05:40.748Z,24.99
2022-08-22T11:08:34.937Z,25.11
2022-08-22T11:11:10.070Z,25.90
2022-08-22T11:13:46.210Z,24.35
2022-08-22T11:16:28.791Z,23.79
2022-08-22T11:19:28.506Z,25.51
2022-08-22T11:22:07.325Z,25.50
2022-08-22T11:25:11.235Z,25.57
2022-08-22T11:27:49.138Z,25.29
2022-08-22T11:30:21.864Z,25.40
2022-08-22T11:33:18.017Z,25.74
2022-08-22T11:35:55.934Z,26.54
2022-08-22T11:38:36.162Z,26.90
2022-08-22T11:41:13.118Z,25.53
2022-08-22T11:43:54.387Z,25.96
2022-08-22T11:46:30.362Z,25.74
2022-08-22T11:49:09.425Z,25.90
2022-08-22T11:51:59.499Z,26.33
2022-08-22T11:54:42.185Z,25.32
2022-08-22T11:57:14.937Z,25.32
2022-08-22T12:00:02.754Z,24.62
2022-08-22T12:02:45.221Z,23.84
2022-08-22T12:05:24.635Z,23.91
2022-08-22T12:07:58.025Z,23.89
2022-08-22T12:10:31.319Z,23.13
2022-08-22T12:13:07.923Z,23.37
2022-08-22T12:15:43.568Z,22.74
2022-08-22T12:18:45.352Z,22.37
2022-08-22T12:21:38.688Z,22.53
2022-08-22T12:24:37.122Z,20.81
2022-08-22T12:27:32.973Z,21.98
2022-08-22T12:30:19.267Z,20.51
2022-08-22T12:33:25.727Z,21.29
2022-08-22T12:36:09.586Z,21.23
2022-08-22T12:38:59.037Z,21.17
2022-08-22T12:41:46.742Z,21.16
2022-08-22T12:44:37.649Z,20.58
2022-08-22T12:47:28.856Z,19.07
2022-08-22T12:50:25.992Z,19.57
2022-08-22T12:53:23.200Z,20.28
2022-08-22T12:56:05.967Z,20.71
2022-08-22T12:59:01.380Z,21.87
2022-08-22T13:01:40.197Z,22.05
2022-08-22T13:04:32.497Z,21.15
2022-08-22T13:07:17.362Z,21.16
2022-08-22T13:09:50.281Z,20.97
2022-08-22T13:12:25.984Z,22.32
2022-08-22T13:15:00.780Z,23.37
2022-08-22T13:17:29.647Z,22.59
2022-08-22T13:20:04.629Z,23.03
2022-08-22T13:22:36.477Z,23.61
2022-08-22T13:25:15.566Z,24.08
2022-08-22T13:27:56.136Z,24.18
2022-08-22T13:30:31.660Z,23.85
2022-08-22T13:33:08.581Z,23.55
2022-08-22T13:35:44.643Z,23.98
2022-08-22T13:38:25.850Z,24.26
2022-08-22T13:40:56.830Z,24.82
2022-08-22T13:43:29.705Z,24.38
2022-08-22T13:46:01.724Z,23.88
2022-08-22T13:48:46.799Z,24.06
2022-08-22T13:51:24.642Z,25.51
2022-08-22T13:54:02.187Z,24.78
2022-08-22T13:56:36.722Z,25.29
2022-08-22T13:59:08.270Z,25.39
2022-08-22T14:01:50.312Z,24.75
2022-08-22T14:04:32.146Z,24.61
2022-08-22T14:07:28.269Z,24.64
2022-08-22T14:09:59.263Z,24.55
2022-08-22T14:12:33.918Z,24.53
2022-08-22T14:15:24.119Z,25.00
2022-08-22T14:18:03.366Z,24.90
2022-08-22T14:20:33.712Z,25.06
2022-08-22T14:23:08.722Z,25.35
2022-08-22T14:25:39.923Z,24.34
2022-08-22T14:28:10.299Z,24.25
2022-08-22T14:30:59.501Z,23.98
2022-08-22T14:33:35.366Z,24.32
2022-08-22T14:36:05.200Z,23.73
2022-08-22T14:38:40.421Z,24.34
2022-08-22T14:41:26.260Z,25.26
2022-08-22T14:43:58.533Z,24.98
2022-08-22T14:46:31.543Z,25.36
2022-08-22T14:49:26.883Z,25.60
2022-08-22T14:52:02.876Z,25.47
2022-08-22T14:54:33.685Z,24.57
2022-08-22T14:57:10.375Z,25.75
2022-08-22T14:59:46.571Z,25.82
2022-08-22T15:02:27.641Z,25.95
2022-08-22T15:04:57.094Z,25.55
2022-08-22T15:07:29.428Z,25.65
2022-08-22T15:10:03.828Z,26.08
2022-08-22T15:12:37.758Z,25.92
2022-08-22T15:15:11.304Z,26.10
2022-08-22T15:17:44.570Z,26.10
2022-08-22T15:20:27.871Z,26.00
2022-08-22T15:22:59.833Z,26.53
2022-08-22T15:25:33.305Z,26.46
2022-08-22T15:28:05.759Z,26.40
2022-08-22T15:30:38.634Z,26.28
2022-08-22T15:33:19.038Z,26.30
2022-08-22T15:35:48.872Z,25.91
2022-08-22T15:38:32.527Z,25.84
2022-08-22T15:41:36.011Z,25.33
2022-08-22T15:44:14.804Z,25.52
2022-08-22T15:47:00.037Z,25.61
2022-08-22T15:49:31.289Z,25.19
2022-08-22T15:52:15.241Z,25.27
2022-08-22T15:55:06.210Z,25.69
2022-08-22T15:57:38.854Z,25.79
2022-08-22T16:00:28.002Z,25.94
2022-08-22T16:03:01.751Z,26.44
2022-08-22T16:05:45.612Z,26.96
2022-08-22T16:08:16.974Z,27.03
2022-08-22T16:10:48.640Z,26.71
2022-08-22T16:13:40.812Z,27.46
2022-08-22T16:16:13.748Z,27.49
2022-08-22T16:19:15.281Z,27.63
2022-08-22T16:22:06.646Z,27.28
2022-08-22T16:25:14.215Z,26.73
2022-08-22T16:27:56.591Z,27.26
2022-08-22T16:30:35.477Z,27.54
2022-08-22T16:33:04.499Z,27.59
2022-08-22T16:36:23.722Z,27.79
2022-08-22T16:38:55.829Z,27.84
2022-08-22T16:41:29.199Z,27.46
2022-08-22T16:44:41.451Z,27.65
2022-08-22T16:47:16.045Z,27.97
2022-08-22T16:49:58.090Z,28.04
2022-08-22T16:52:53.158Z,28.24
2022-08-22T16:55:48.933Z,28.43
2022-08-22T16:59:03.323Z,27.91
2022-08-22T17:02:16.907Z,28.76
2022-08-22T17:04:54.493Z,27.90
2022-08-22T17:07:34.351Z,27.74
2022-08-22T17:10:27.720Z,28.26
2022-08-22T17:13:10.517Z,28.49
2022-08-22T17:15:58.407Z,27.78
2022-08-22T17:18:45.613Z,28.00
2022-08-22T17:21:25.440Z,28.55
2022-08-22T17:24:01.327Z,27.82
2022-08-22T17:26:41.899Z,28.25
2022-08-22T17:29:18.107Z,28.06
2022-08-22T17:31:54.385Z,28.53
2022-08-22T17:34:34.503Z,28.36
2022-08-22T17:37:10.696Z,28.74
2022-08-22T17:39:57.221Z,28.57
2022-08-22T17:42:53.465Z,28.85
2022-08-22T17:45:33.786Z,28.60
2022-08-22T17:48:16.853Z,28.72
2022-08-22T17:50:50.189Z,29.26
2022-08-22T17:53:30.983Z,29.16
2022-08-22T17:56:06.628Z,29.56
2022-08-22T17:58:43.849Z,29.13
2022-08-22T18:01:19.701Z,29.68
2022-08-22T18:03:58.566Z,29.64
2022-08-22T18:06:33.849Z,29.79
2022-08-22T18:09:13.955Z,29.77
2022-08-22T18:11:48.229Z,30.16
2022-08-22T18:14:28.564Z,30.63
2022-08-22T18:16:59.061Z,30.86
2022-08-22T18:19:40.999Z,31.39
2022-08-22T18:22:20.305Z,30.94
2022-08-22T18:24:54.497Z,31.09
2022-08-22T18:27:35.413Z,31.33
2022-08-22T18:30:15.457Z,31.20
2022-08-22T18:32:52.580Z,32.12
2022-08-22T18:35:26.228Z,32.34
2022-08-22T18:38:18.260Z,32.24
2022-08-22T18:40:53.374Z,32.03
2022-08-22T18:43:26.900Z,32.56
2022-08-22T18:46:03.287Z,31.96
2022-08-22T18:48:54.417Z,32.60
2022-08-22T18:51:30.911Z,32.19
2022-08-22T18:54:26.756Z,32.59
2022-08-22T18:57:01.204Z,32.88
2022-08-22T18:59:45.910Z,33.00
2022-08-22T19:02:50.652Z,32.75
2022-08-22T19:05:44.764Z,32.75
2022-08-22T19:08:27.629Z,33.76
2022-08-22T19:11:10.153Z,33.75
2022-08-22T19:14:08.869Z,33.52
2022-08-22T19:17:02.631Z,34.09
2022-08-22T19:20:02.374Z,34.44
2022-08-22T19:22:34.126Z,34.29
2022-08-22T19:25:12.015Z,34.64
2022-08-22T19:27:44.610Z,35.33
2022-08-22T19:30:43.042Z,35.83
2022-08-22T19:33:12.132Z,35.96
2022-08-22T19:36:07.010Z,35.79
2022-08-22T19:39:00.256Z,36.12
2022-08-22T19:41:47.341Z,37.07
2022-08-22T19:44:35.818Z,36.71
2022-08-22T19:47:11.301Z,36.94
2022-08-22T19:49:43.963Z,36.90
2022-08-22T19:52:27.679Z,37.40
2022-08-22T19:55:02.972Z,36.80
2022-08-22T19:57:43.059Z,37.06
2022-08-22T20:00:15.116Z,37.34
2022-08-22T20:02:58.981Z,37.71
2022-08-22T20:05:33.900Z,38.10
2022-08-22T20:08:25.477Z,38.25
2022-08-22T20:11:05.163Z,38.39
2022-08-22T20:13:35.630Z,37.60
2022-08-22T20:16:13.419Z,38.34
2022-08-22T20:19:14.905Z,39.12
2022-08-22T20:21:52.792Z,39.74
2022-08-22T20:24:27.135Z,39.59
2022-08-22T20:27:13.249Z,39.79
2022-08-22T20:29:49.075Z,40.50
2022-08-22T20:32:22.999Z,39.63
2022-08-22T20:34:56.907Z,40.15
2022-08-22T20:37:50.719Z,40.92
2022-08-22T20:40:56.990Z,40.75
2022-08-22T20:43:24.520Z,41.48
2022-08-22T20:46:05.540Z,41.42
2022-08-22T20:48:39.253Z,41.92
2022-08-22T20:51:09.989Z,41.96
2022-08-22T20:53:38.094Z,42.25
2022-08-22T20:56:08.221Z,42.49
2022-08-22T20:58:39.938Z,42.74
2022-08-22T21:01:12.560Z,42.35
2022-08-22T21:03:47.168Z,42.83
2022-08-22T21:06:17.672Z,42.76
2022-08-22T21:08:47.421Z,43.03
2022-08-22T21:11:39.820Z,43.57
2022-08-22T21:14:20.801Z,43.94
2022-08-22T21:16:49.677Z,44.25
2022-08-22T21:19:20.967Z,43.67
2022-08-22T21:21:48.863Z,44.64
2022-08-22T21:24:17.195Z,44.66
2022-08-22T21:26:50.078Z,44.83
2022-08-22T21:29:27.035Z,44.70
2022-08-22T21:32:12.065Z,44.39
2022-08-22T21:34:46.679Z,44.29
2022-08-22T21:37:16.959Z,44.95
2022-08-22T21:39:48.706Z,45.25
2022-08-22T21:42:26.377Z,45.41
2022-08-22T21:44:59.051Z,45.90
2022-08-22T21:47:31.647Z,46.00
2022-08-22T21:50:10.317Z,46.15
2022-08-22T21:52:39.831Z,46.32
2022-08-22T21:55:25.535Z,47.14
2022-08-22T21:58:04.939Z,46.81
2022-08-22T22:00:50.981Z,47.32
2022-08-22T22:03:21.684Z,46.77
2022-08-22T22:05:52.794Z,46.96
2022-08-22T22:08:20.601Z,47.66
2022-08-22T22:10:49.987Z,47.89
2022-08-22T22:13:20.614Z,48.59
2022-08-22T22:15:53.707Z,48.42
2022-08-22T22:18:24.194Z,48.59
2022-08-22T22:20:55.143Z,49.07
2022-08-22T22:23:23.501Z,49.25
2022-08-22T22:25:52.312Z,49.90
2022-08-22T22:28:23.454Z,49.95
2022-08-22T22:30:53.298Z,49.67
2022-08-22T22:33:23.199Z,49.59
2022-08-22T22:35:54.061Z,50.20
2022-08-22T22:38:24.312Z,50.64
2022-08-22T22:40:52.538Z,52.01
2022-08-22T22:43:20.452Z,51.22
2022-08-22T22:45:48.298Z,51.11
2022-08-22T22:48:23.920Z,52.15
2022-08-22T22:50:54.070Z,51.88
2022-08-22T22:53:38.178Z,52.27
2022-08-22T22:56:09.130Z,51.76
2022-08-22T22:58:37.572Z,52.23
2022-08-22T23:01:09.206Z,52.71
2022-08-22T23:03:37.089Z,52.29
2022-08-22T23:06:11.030Z,53.11
2022-08-22T23:08:38.855Z,53.25
2022-08-22T23:11:10.558Z,52.98
2022-08-22T23:13:39.743Z,52.79
2022-08-22T23:16:12.928Z,52.97
2022-08-22T23:18:40.796Z,52.97
2022-08-22T23:21:15.270Z,54.34
2022-08-22T23:23:43.580Z,54.61
2022-08-22T23:26:12.289Z,54.33
2022-08-22T23:28:40.508Z,54.09
2022-08-22T23:31:14.501Z,54.54
2022-08-22T23:33:42.372Z,54.21
2022-08-22T23:36:14.186Z,54.41
2022-08-22T23:38:42.093Z,54.65
2022-08-22T23:41:11.072Z,54.84
2022-08-22T23:43:42.929Z,55.30
2022-08-22T23:46:11.213Z,55.65
2022-08-22T23:48:39.051Z,55.70
2022-08-22T23:51:07.541Z,56.18
2022-08-22T23:53:37.661Z,56.31
2022-08-22T23:56:19.400Z,56.87
2022-08-22T23:58:49.139Z,57.37
